createdAt,value
2018-07-20T00:00:45.694Z,60.78
2018-07-20T00:01:45.742Z,60.78
2018-07-20T00:02:45.839Z,60.78
2018-07-20T00:03:45.661Z,60.72
2018-07-20T00:04:55.755Z,60.76
2018-07-20T00:05:46.040Z,60.77
2018-07-20T00:06:46.035Z,60.75
2018-07-20T00:07:45.824Z,60.74
2018-07-20T00:08:45.891Z,60.79
2018-07-20T00:09:45.832Z,60.78
2018-07-20T00:10:45.931Z,60.76
2018-07-20T00:11:45.963Z,60.79
2018-07-20T00:12:45.818Z,60.79
2018-07-20T00:13:45.621Z,60.76
2018-07-20T00:14:45.768Z,60.77
2018-07-20T00:15:45.899Z,60.73
2018-07-20T00:16:46.744Z,60.71
2018-07-20T00:17:45.935Z,60.76
2018-07-20T00:18:45.855Z,60.72
2018-07-20T00:19:45.740Z,60.72
2018-07-20T00:20:45.812Z,60.74
2018-07-20T00:21:45.801Z,60.71
2018-07-20T00:22:45.688Z,60.74
2018-07-20T00:23:45.874Z,60.69
2018-07-20T00:24:45.700Z,60.72
2018-07-20T00:25:45.608Z,60.67
2018-07-20T00:26:45.762Z,60.72
2018-07-20T00:27:45.922Z,60.7
2018-07-20T00:28:45.643Z,60.69
2018-07-20T00:29:45.713Z,60.7
2018-07-20T00:30:45.711Z,60.7
2018-07-20T00:31:45.714Z,60.75
2018-07-20T00:32:45.773Z,60.72
2018-07-20T00:33:45.629Z,60.69
2018-07-20T00:34:45.844Z,60.72
2018-07-20T00:35:45.892Z,60.71
2018-07-20T00:36:45.680Z,60.69
2018-07-20T00:37:45.742Z,60.7
2018-07-20T00:38:45.837Z,60.7
2018-07-20T00:39:45.748Z,60.7
2018-07-20T00:40:46.068Z,60.68
2018-07-20T00:41:45.922Z,60.7
2018-07-20T00:42:45.778Z,60.69
2018-07-20T00:43:45.945Z,60.69
2018-07-20T00:44:45.709Z,60.69
2018-07-20T00:45:45.784Z,60.68
2018-07-20T00:46:45.840Z,60.67
2018-07-20T00:47:45.722Z,60.68
2018-07-20T00:48:45.739Z,60.64
2018-07-20T00:49:45.758Z,60.72
2018-07-20T00:50:45.719Z,60.69
2018-07-20T00:51:45.962Z,60.67
2018-07-20T00:52:45.891Z,60.67
2018-07-20T00:53:45.662Z,60.67
2018-07-20T00:54:45.697Z,60.67
2018-07-20T00:55:45.784Z,60.69
2018-07-20T00:56:45.811Z,60.68
2018-07-20T00:57:46.120Z,60.67
2018-07-20T00:58:45.901Z,60.7
2018-07-20T00:59:45.821Z,60.72
2018-07-20T01:00:45.655Z,60.72
2018-07-20T01:01:45.816Z,60.68
2018-07-20T01:02:45.713Z,60.71
2018-07-20T01:03:45.909Z,60.69
2018-07-20T01:04:45.782Z,60.68
2018-07-20T01:05:45.917Z,60.67
2018-07-20T01:06:45.973Z,60.71
2018-07-20T01:07:45.804Z,60.67
2018-07-20T01:08:45.697Z,60.69
2018-07-20T01:09:45.827Z,60.61
2018-07-20T01:10:45.706Z,60.65
2018-07-20T01:11:45.787Z,60.68
2018-07-20T01:12:45.899Z,60.69
2018-07-20T01:13:45.755Z,60.68
2018-07-20T01:14:45.786Z,60.66
2018-07-20T01:15:45.783Z,60.69
2018-07-20T01:16:45.979Z,60.68
2018-07-20T01:17:45.879Z,60.66
2018-07-20T01:18:45.795Z,60.68
2018-07-20T01:19:45.762Z,60.66
2018-07-20T01:20:45.767Z,60.65
2018-07-20T01:21:45.987Z,60.68
2018-07-20T01:22:45.755Z,60.69
2018-07-20T01:23:45.809Z,60.67
2018-07-20T01:24:45.819Z,60.69
2018-07-20T01:25:45.847Z,60.68
2018-07-20T01:26:45.732Z,60.64
2018-07-20T01:27:45.805Z,60.66
2018-07-20T01:28:45.729Z,60.68
2018-07-20T01:29:45.697Z,60.65
2018-07-20T01:30:45.770Z,60.66
2018-07-20T01:31:45.735Z,60.68
2018-07-20T01:32:45.811Z,60.67
2018-07-20T01:33:45.764Z,60.67
2018-07-20T01:34:45.890Z,60.67
2018-07-20T01:35:45.721Z,60.69
2018-07-20T01:36:45.823Z,60.69
2018-07-20T01:37:45.825Z,60.66
2018-07-20T01:38:45.765Z,60.68
2018-07-20T01:39:45.710Z,60.7
2018-07-20T01:40:45.604Z,60.67
2018-07-20T01:41:45.781Z,60.69
2018-07-20T01:42:45.638Z,60.69
2018-07-20T01:43:45.668Z,60.66
2018-07-20T01:44:45.886Z,60.68
2018-07-20T01:45:45.684Z,60.67
2018-07-20T01:46:45.730Z,60.67
2018-07-20T01:47:45.867Z,60.67
2018-07-20T01:48:45.755Z,60.66
2018-07-20T01:49:45.660Z,60.65
2018-07-20T01:50:45.733Z,60.69
2018-07-20T01:51:45.793Z,60.72
2018-07-20T01:52:45.713Z,60.65
2018-07-20T01:53:45.621Z,60.67
2018-07-20T01:54:45.732Z,60.63
2018-07-20T01:55:45.880Z,60.68
2018-07-20T01:56:45.762Z,60.7
2018-07-20T01:57:45.775Z,60.64
2018-07-20T01:58:45.855Z,60.68
2018-07-20T01:59:45.746Z,60.67
2018-07-20T02:00:45.726Z,60.64
2018-07-20T02:01:45.812Z,60.65
2018-07-20T02:02:46.060Z,60.65
2018-07-20T02:03:45.724Z,60.68
2018-07-20T02:04:45.760Z,60.63
2018-07-20T02:05:45.639Z,60.62
2018-07-20T02:06:46.100Z,60.64
2018-07-20T02:07:45.698Z,60.65
2018-07-20T02:08:45.817Z,60.67
2018-07-20T02:09:45.778Z,60.67
2018-07-20T02:10:45.804Z,60.66
2018-07-20T02:11:45.934Z,60.62
2018-07-20T02:12:45.738Z,60.68
2018-07-20T02:13:45.769Z,60.67
2018-07-20T02:14:45.956Z,60.66
2018-07-20T02:15:45.889Z,60.64
2018-07-20T02:16:45.912Z,60.65
2018-07-20T02:17:46.032Z,60.65
2018-07-20T02:18:46.036Z,60.63
2018-07-20T02:19:45.728Z,60.63
2018-07-20T02:20:45.743Z,60.63
2018-07-20T02:21:45.725Z,60.62
2018-07-20T02:22:46.032Z,60.62
2018-07-20T02:23:45.979Z,60.63
2018-07-20T02:24:45.810Z,60.67
2018-07-20T02:25:45.601Z,60.65
2018-07-20T02:26:45.628Z,60.63
2018-07-20T02:27:45.845Z,60.64
2018-07-20T02:28:45.852Z,60.65
2018-07-20T02:29:45.685Z,60.63
2018-07-20T02:30:45.833Z,60.6
2018-07-20T02:31:45.796Z,60.61
2018-07-20T02:32:45.734Z,60.63
2018-07-20T02:33:45.897Z,60.65
2018-07-20T02:34:45.752Z,60.65
2018-07-20T02:35:46.091Z,60.62
2018-07-20T02:36:45.836Z,60.61
2018-07-20T02:37:45.835Z,60.6
2018-07-20T02:38:45.712Z,60.62
2018-07-20T02:39:45.844Z,60.63
2018-07-20T02:40:46.044Z,60.63
2018-07-20T02:41:46.149Z,60.63
2018-07-20T02:42:45.725Z,60.63
2018-07-20T02:43:45.695Z,60.62
2018-07-20T02:44:45.721Z,60.55
2018-07-20T02:45:45.932Z,60.61
2018-07-20T02:46:45.795Z,60.61
2018-07-20T02:47:45.732Z,60.58
2018-07-20T02:48:45.813Z,60.6
2018-07-20T02:49:45.801Z,60.55
2018-07-20T02:50:45.861Z,60.61
2018-07-20T02:51:45.627Z,60.58
2018-07-20T02:52:45.723Z,60.61
2018-07-20T02:53:45.618Z,60.62
2018-07-20T02:54:45.598Z,60.56
2018-07-20T02:55:45.847Z,60.57
2018-07-20T02:56:45.888Z,60.61
2018-07-20T02:57:45.745Z,60.6
2018-07-20T02:58:45.718Z,60.58
2018-07-20T02:59:45.641Z,60.59
2018-07-20T03:00:45.609Z,60.62
2018-07-20T03:01:45.750Z,60.62
2018-07-20T03:02:45.726Z,60.59
2018-07-20T03:03:45.625Z,60.59
2018-07-20T03:04:45.644Z,60.62
2018-07-20T03:05:45.841Z,60.58
2018-07-20T03:06:45.813Z,60.57
2018-07-20T03:07:45.792Z,60.59
2018-07-20T03:08:45.841Z,60.61
2018-07-20T03:09:45.739Z,60.62
2018-07-20T03:10:45.687Z,60.61
2018-07-20T03:11:45.849Z,60.6
2018-07-20T03:12:46.036Z,60.61
2018-07-20T03:13:45.841Z,60.6
2018-07-20T03:14:45.847Z,60.58
2018-07-20T03:15:45.952Z,60.63
2018-07-20T03:16:45.797Z,60.61
2018-07-20T03:17:45.737Z,60.59
2018-07-20T03:18:45.712Z,60.62
2018-07-20T03:19:45.778Z,60.61
2018-07-20T03:20:45.939Z,60.55
2018-07-20T03:21:45.833Z,60.56
2018-07-20T03:22:45.841Z,60.59
2018-07-20T03:23:45.849Z,60.62
2018-07-20T03:24:45.728Z,60.6
2018-07-20T03:25:45.906Z,60.55
2018-07-20T03:26:45.963Z,60.56
2018-07-20T03:27:45.714Z,60.59
2018-07-20T03:28:45.628Z,60.55
2018-07-20T03:29:45.791Z,60.59
2018-07-20T03:30:45.801Z,60.59
2018-07-20T03:31:45.721Z,60.6
2018-07-20T03:32:46.544Z,60.61
2018-07-20T03:33:45.762Z,60.59
2018-07-20T03:34:45.701Z,60.59
2018-07-20T03:35:45.930Z,60.57
2018-07-20T03:36:45.781Z,60.57
2018-07-20T03:37:45.574Z,60.56
2018-07-20T03:38:45.842Z,60.58
2018-07-20T03:39:45.796Z,60.6
2018-07-20T03:40:45.825Z,60.59
2018-07-20T03:41:45.600Z,60.59
2018-07-20T03:42:45.789Z,60.59
2018-07-20T03:43:45.563Z,60.61
2018-07-20T03:44:45.715Z,60.59
2018-07-20T03:45:45.729Z,60.55
2018-07-20T03:46:45.674Z,60.58
2018-07-20T03:47:45.687Z,60.58
2018-07-20T03:48:45.732Z,60.58
2018-07-20T03:49:45.706Z,60.57
2018-07-20T03:50:45.762Z,60.57
2018-07-20T03:51:45.843Z,60.55
2018-07-20T03:52:45.767Z,60.56
2018-07-20T03:53:45.680Z,60.58
2018-07-20T03:54:45.574Z,60.58
2018-07-20T03:55:45.646Z,60.55
2018-07-20T03:56:45.805Z,60.57
2018-07-20T03:57:45.885Z,60.58
2018-07-20T03:58:45.824Z,60.56
2018-07-20T03:59:45.900Z,60.54
2018-07-20T04:00:45.732Z,60.53
2018-07-20T04:01:45.791Z,60.55
2018-07-20T04:02:45.781Z,60.51
2018-07-20T04:03:45.783Z,60.54
2018-07-20T04:04:45.634Z,60.54
2018-07-20T04:05:45.824Z,60.53
2018-07-20T04:06:45.657Z,60.52
2018-07-20T04:07:45.655Z,60.52
2018-07-20T04:08:45.817Z,60.52
2018-07-20T04:09:45.819Z,60.52
2018-07-20T04:10:45.702Z,60.51
2018-07-20T04:11:45.781Z,60.5
2018-07-20T04:12:45.654Z,60.53
2018-07-20T04:13:45.541Z,60.54
2018-07-20T04:14:45.601Z,60.52
2018-07-20T04:15:45.546Z,60.52
2018-07-20T04:16:45.767Z,60.55
2018-07-20T04:17:45.808Z,60.52
2018-07-20T04:18:45.616Z,60.5
2018-07-20T04:19:45.850Z,60.47
2018-07-20T04:20:45.810Z,60.5
2018-07-20T04:21:45.697Z,60.47
2018-07-20T04:22:45.731Z,60.48
2018-07-20T04:23:45.796Z,60.47
2018-07-20T04:24:45.906Z,60.48
2018-07-20T04:25:45.767Z,60.52
2018-07-20T04:26:45.751Z,60.51
2018-07-20T04:27:45.959Z,60.51
2018-07-20T04:28:45.632Z,60.46
2018-07-20T04:29:45.781Z,60.48
2018-07-20T04:30:45.878Z,60.49
2018-07-20T04:31:45.649Z,60.53
2018-07-20T04:32:45.924Z,60.48
2018-07-20T04:33:45.705Z,60.49
2018-07-20T04:34:45.687Z,60.51
2018-07-20T04:35:45.807Z,60.5
2018-07-20T04:36:45.950Z,60.53
2018-07-20T04:37:45.752Z,60.5
2018-07-20T04:38:45.575Z,60.45
2018-07-20T04:39:45.744Z,60.47
2018-07-20T04:40:45.705Z,60.51
2018-07-20T04:41:45.728Z,60.51
2018-07-20T04:42:45.664Z,60.47
2018-07-20T04:43:46.260Z,60.46
2018-07-20T04:44:45.791Z,60.5
2018-07-20T04:45:45.826Z,60.5
2018-07-20T04:46:45.588Z,60.48
2018-07-20T04:47:46.007Z,60.5
2018-07-20T04:48:45.667Z,60.52
2018-07-20T04:49:45.748Z,60.49
2018-07-20T04:50:45.666Z,60.5
2018-07-20T04:51:45.641Z,60.5
2018-07-20T04:52:45.803Z,60.51
2018-07-20T04:53:45.656Z,60.5
2018-07-20T04:54:45.773Z,60.53
2018-07-20T04:55:45.723Z,60.49
2018-07-20T04:56:45.862Z,60.53
2018-07-20T04:57:45.587Z,60.51
2018-07-20T04:58:46.157Z,60.5
2018-07-20T04:59:45.546Z,60.48
2018-07-20T05:00:45.636Z,60.48
2018-07-20T05:01:45.682Z,60.49
2018-07-20T05:02:45.725Z,60.48
2018-07-20T05:03:46.712Z,60.5
2018-07-20T05:04:45.954Z,60.47
2018-07-20T05:05:45.942Z,60.5
2018-07-20T05:06:45.643Z,60.48
2018-07-20T05:07:45.904Z,60.5
2018-07-20T05:08:45.831Z,60.52
2018-07-20T05:09:45.776Z,60.49
2018-07-20T05:10:45.796Z,60.49
2018-07-20T05:11:45.811Z,60.5
2018-07-20T05:12:45.683Z,60.5
2018-07-20T05:13:45.958Z,60.5
2018-07-20T05:14:45.680Z,60.48
2018-07-20T05:15:45.804Z,60.48
2018-07-20T05:16:45.714Z,60.51
2018-07-20T05:17:45.739Z,60.5
2018-07-20T05:18:45.567Z,60.48
2018-07-20T05:19:45.710Z,60.49
2018-07-20T05:20:45.759Z,60.5
2018-07-20T05:21:45.904Z,60.53
2018-07-20T05:22:45.636Z,60.5
2018-07-20T05:23:45.652Z,60.5
2018-07-20T05:24:45.793Z,60.52
2018-07-20T05:25:45.557Z,60.52
2018-07-20T05:26:45.794Z,60.55
2018-07-20T05:27:45.689Z,60.52
2018-07-20T05:28:45.716Z,60.53
2018-07-20T05:29:45.813Z,60.53
2018-07-20T05:30:45.812Z,60.51
2018-07-20T05:31:45.695Z,60.53
2018-07-20T05:32:45.621Z,60.51
2018-07-20T05:33:45.733Z,60.5
2018-07-20T05:34:45.551Z,60.52
2018-07-20T05:35:45.728Z,60.51
2018-07-20T05:36:45.620Z,60.52
2018-07-20T05:37:45.682Z,60.52
2018-07-20T05:38:45.668Z,60.53
2018-07-20T05:39:45.869Z,60.56
2018-07-20T05:40:45.821Z,60.55
2018-07-20T05:41:45.751Z,60.54
2018-07-20T05:42:45.670Z,60.57
2018-07-20T05:43:45.804Z,60.58
2018-07-20T05:44:45.657Z,60.57
2018-07-20T05:45:45.843Z,60.57
2018-07-20T05:46:45.831Z,60.51
2018-07-20T05:47:45.660Z,60.56
2018-07-20T05:48:45.675Z,60.55
2018-07-20T05:49:45.789Z,60.56
2018-07-20T05:50:45.754Z,60.54
2018-07-20T05:51:45.804Z,60.55
2018-07-20T05:52:45.793Z,60.55
2018-07-20T05:53:45.665Z,60.56
2018-07-20T05:54:45.554Z,60.55
2018-07-20T05:55:45.614Z,60.57
2018-07-20T05:56:45.728Z,60.57
2018-07-20T05:57:45.777Z,60.57
2018-07-20T05:58:45.844Z,60.52
2018-07-20T05:59:45.762Z,60.57
2018-07-20T06:00:45.702Z,60.57
2018-07-20T06:01:45.757Z,60.55
2018-07-20T06:02:45.940Z,60.54
2018-07-20T06:03:45.574Z,60.56
2018-07-20T06:04:45.737Z,60.54
2018-07-20T06:05:45.977Z,60.52
2018-07-20T06:06:45.846Z,60.54
2018-07-20T06:07:45.712Z,60.52
2018-07-20T06:08:45.660Z,60.54
2018-07-20T06:09:45.685Z,60.59
2018-07-20T06:10:45.705Z,60.59
2018-07-20T06:11:45.777Z,60.54
2018-07-20T06:12:45.778Z,60.59
2018-07-20T06:13:45.612Z,60.59
2018-07-20T06:14:45.607Z,60.57
2018-07-20T06:15:45.742Z,60.59
2018-07-20T06:16:45.768Z,60.57
2018-07-20T06:17:45.833Z,60.57
2018-07-20T06:18:45.896Z,60.55
2018-07-20T06:19:45.778Z,60.58
2018-07-20T06:20:45.754Z,60.56
2018-07-20T06:22:07.758Z,60.55
2018-07-20T06:22:45.691Z,60.54
2018-07-20T06:23:46.276Z,60.56
2018-07-20T06:24:55.701Z,60.59
2018-07-20T06:25:47.351Z,60.58
2018-07-20T06:26:45.572Z,60.61
2018-07-20T06:27:45.714Z,60.62
2018-07-20T06:28:45.712Z,60.6
2018-07-20T06:29:45.795Z,60.55
2018-07-20T06:30:45.693Z,60.58
2018-07-20T06:31:45.752Z,60.6
2018-07-20T06:32:45.682Z,60.61
2018-07-20T06:33:45.513Z,60.62
2018-07-20T06:34:45.657Z,60.62
2018-07-20T06:35:45.595Z,60.6
2018-07-20T06:36:45.789Z,60.6
2018-07-20T06:37:45.563Z,60.61
2018-07-20T06:38:45.694Z,60.59
2018-07-20T06:39:45.739Z,60.6
2018-07-20T06:40:46.177Z,60.61
2018-07-20T06:41:45.597Z,60.62
2018-07-20T06:42:45.551Z,60.62
2018-07-20T06:43:45.574Z,60.63
2018-07-20T06:44:45.851Z,60.62
2018-07-20T06:45:45.569Z,60.61
2018-07-20T06:46:45.715Z,60.58
2018-07-20T06:47:45.585Z,60.61
2018-07-20T06:48:45.720Z,60.62
2018-07-20T06:49:46.299Z,60.61
2018-07-20T06:50:45.913Z,60.6
2018-07-20T06:51:45.537Z,60.61
2018-07-20T06:52:45.843Z,60.61
2018-07-20T06:53:45.733Z,60.58
2018-07-20T06:54:45.698Z,60.64
2018-07-20T06:55:46.152Z,60.64
2018-07-20T06:56:45.810Z,60.59
2018-07-20T06:57:45.773Z,60.61
2018-07-20T06:58:45.603Z,60.63
2018-07-20T06:59:45.889Z,60.65
2018-07-20T07:00:45.598Z,60.62
2018-07-20T07:01:45.797Z,60.61
2018-07-20T07:02:45.728Z,60.62
2018-07-20T07:03:45.562Z,60.64
2018-07-20T07:04:45.758Z,60.65
2018-07-20T07:05:45.738Z,60.61
2018-07-20T07:06:45.741Z,60.58
2018-07-20T07:07:45.699Z,60.63
2018-07-20T07:08:45.713Z,60.64
2018-07-20T07:09:45.514Z,60.6
2018-07-20T07:10:45.633Z,60.63
2018-07-20T07:11:45.836Z,60.64
2018-07-20T07:12:45.614Z,60.62
2018-07-20T07:13:45.679Z,60.65
2018-07-20T07:14:46.128Z,60.61
2018-07-20T07:15:45.765Z,60.65
2018-07-20T07:16:45.744Z,60.63
2018-07-20T07:17:45.541Z,60.63
2018-07-20T07:18:45.714Z,60.63
2018-07-20T07:19:45.705Z,60.61
2018-07-20T07:20:45.820Z,60.64
2018-07-20T07:21:45.809Z,60.63
2018-07-20T07:22:45.617Z,60.63
2018-07-20T07:23:46.578Z,60.6
2018-07-20T07:24:45.712Z,60.64
2018-07-20T07:25:45.589Z,60.65
2018-07-20T07:26:45.706Z,60.61
2018-07-20T07:27:45.748Z,60.61
2018-07-20T07:28:45.772Z,60.6
2018-07-20T07:29:45.746Z,60.61
2018-07-20T07:30:45.949Z,60.62
2018-07-20T07:31:45.878Z,60.63
2018-07-20T07:32:45.840Z,60.63
2018-07-20T07:33:45.761Z,60.68
2018-07-20T07:34:45.694Z,60.65
2018-07-20T07:35:46.173Z,60.57
2018-07-20T07:36:45.532Z,60.6
2018-07-20T07:37:45.601Z,60.59
2018-07-20T07:38:45.743Z,60.61
2018-07-20T07:39:45.696Z,60.62
2018-07-20T07:40:45.713Z,60.6
2018-07-20T07:41:45.573Z,60.61
2018-07-20T07:42:45.787Z,60.6
2018-07-20T07:43:45.749Z,60.63
2018-07-20T07:44:45.707Z,60.63
2018-07-20T07:45:45.616Z,60.61
2018-07-20T07:46:45.834Z,60.62
2018-07-20T07:47:45.678Z,60.61
2018-07-20T07:48:45.765Z,60.62
2018-07-20T07:49:45.729Z,60.62
2018-07-20T07:50:45.574Z,60.6
2018-07-20T07:51:45.767Z,60.61
2018-07-20T07:52:45.697Z,60.61
2018-07-20T07:53:45.788Z,60.6
2018-07-20T07:54:46.161Z,60.61
2018-07-20T07:55:45.717Z,60.6
2018-07-20T07:56:45.649Z,60.62
2018-07-20T07:57:45.545Z,60.61
2018-07-20T07:58:45.494Z,60.63
2018-07-20T07:59:45.723Z,60.6
2018-07-20T08:00:45.716Z,60.64
2018-07-20T08:01:45.719Z,60.61
2018-07-20T08:02:45.774Z,60.6
2018-07-20T08:03:45.533Z,60.63
2018-07-20T08:04:45.540Z,60.63
2018-07-20T08:05:45.839Z,60.63
2018-07-20T08:06:45.478Z,60.65
2018-07-20T08:07:45.712Z,60.62
2018-07-20T08:08:45.614Z,60.61
2018-07-20T08:09:46.249Z,60.63
2018-07-20T08:10:45.664Z,60.65
2018-07-20T08:11:46.009Z,60.64
2018-07-20T08:12:45.657Z,60.61
2018-07-20T08:13:45.691Z,60.64
2018-07-20T08:14:45.741Z,60.65
2018-07-20T08:15:45.993Z,60.65
2018-07-20T08:16:45.591Z,60.63
2018-07-20T08:17:45.848Z,60.64
2018-07-20T08:18:45.695Z,60.64
2018-07-20T08:19:45.770Z,60.65
2018-07-20T08:20:45.909Z,60.61
2018-07-20T08:21:45.542Z,60.68
2018-07-20T08:22:46.130Z,60.62
2018-07-20T08:23:45.781Z,60.66
2018-07-20T08:24:46.290Z,60.67
2018-07-20T08:25:45.922Z,60.61
2018-07-20T08:26:45.902Z,60.66
2018-07-20T08:27:45.734Z,60.64
2018-07-20T08:28:45.552Z,60.63
2018-07-20T08:29:45.879Z,60.65
2018-07-20T08:30:45.502Z,60.62
2018-07-20T08:31:45.565Z,60.66
2018-07-20T08:32:45.702Z,60.63
2018-07-20T08:33:45.713Z,60.61
2018-07-20T08:34:45.734Z,60.64
2018-07-20T08:35:45.725Z,60.65
2018-07-20T08:36:45.861Z,60.67
2018-07-20T08:37:45.703Z,60.66
2018-07-20T08:38:45.789Z,60.65
2018-07-20T08:39:45.568Z,60.66
2018-07-20T08:40:45.768Z,60.63
2018-07-20T08:41:45.914Z,60.68
2018-07-20T08:42:45.564Z,60.66
2018-07-20T08:43:45.736Z,60.66
2018-07-20T08:44:45.649Z,60.65
2018-07-20T08:45:45.995Z,60.61
2018-07-20T08:46:45.679Z,60.63
2018-07-20T08:47:45.567Z,60.63
2018-07-20T08:48:45.765Z,60.66
2018-07-20T08:49:45.741Z,60.66
2018-07-20T08:50:45.727Z,60.63
2018-07-20T08:51:45.652Z,60.65
2018-07-20T08:52:45.709Z,60.67
2018-07-20T08:53:45.879Z,60.68
2018-07-20T08:54:45.532Z,60.63
2018-07-20T08:55:45.486Z,60.63
2018-07-20T08:56:45.703Z,60.63
2018-07-20T08:57:45.544Z,60.64
2018-07-20T08:58:45.674Z,60.63
2018-07-20T08:59:45.733Z,60.65
2018-07-20T09:00:45.900Z,60.61
2018-07-20T09:01:45.793Z,60.67
2018-07-20T09:02:45.753Z,60.66
2018-07-20T09:03:45.830Z,60.66
2018-07-20T09:04:45.884Z,60.66
2018-07-20T09:05:45.701Z,60.65
2018-07-20T09:06:55.711Z,60.63
2018-07-20T09:07:45.856Z,60.63
2018-07-20T09:08:45.532Z,60.63
2018-07-20T09:09:45.627Z,60.68
2018-07-20T09:10:45.662Z,60.66
2018-07-20T09:11:45.704Z,60.67
2018-07-20T09:12:45.656Z,60.66
2018-07-20T09:13:47.654Z,60.63
2018-07-20T09:14:45.622Z,60.64
2018-07-20T09:15:45.649Z,60.63
2018-07-20T09:16:45.787Z,60.63
2018-07-20T09:17:45.801Z,60.65
2018-07-20T09:18:45.736Z,60.65
2018-07-20T09:19:45.612Z,60.66
2018-07-20T09:20:47.016Z,60.63
2018-07-20T09:21:45.848Z,60.63
2018-07-20T09:22:45.719Z,60.63
2018-07-20T09:23:45.607Z,60.61
2018-07-20T09:24:45.568Z,60.66
2018-07-20T09:25:45.787Z,60.62
2018-07-20T09:26:45.730Z,60.61
2018-07-20T09:27:45.646Z,60.63
2018-07-20T09:28:45.582Z,60.63
2018-07-20T09:29:45.737Z,60.62
2018-07-20T09:30:45.723Z,60.66
2018-07-20T09:31:45.640Z,60.62
2018-07-20T09:32:45.755Z,60.64
2018-07-20T09:33:45.621Z,60.59
2018-07-20T09:34:45.540Z,60.61
2018-07-20T09:35:45.626Z,60.63
2018-07-20T09:36:45.668Z,60.65
2018-07-20T09:37:45.480Z,60.57
2018-07-20T09:38:45.732Z,60.61
2018-07-20T09:39:45.682Z,60.6
2018-07-20T09:40:45.660Z,60.65
2018-07-20T09:41:45.669Z,60.62
2018-07-20T09:42:45.830Z,60.65
2018-07-20T09:43:45.708Z,60.65
2018-07-20T09:44:45.830Z,60.63
2018-07-20T09:45:45.525Z,60.64
2018-07-20T09:46:45.720Z,60.6
2018-07-20T09:47:45.685Z,60.63
2018-07-20T09:48:45.491Z,60.6
2018-07-20T09:49:45.747Z,60.6
2018-07-20T09:50:45.611Z,60.63
2018-07-20T09:51:45.461Z,60.62
2018-07-20T09:52:45.877Z,60.61
2018-07-20T09:53:45.492Z,60.62
2018-07-20T09:54:45.793Z,60.6
2018-07-20T09:55:45.717Z,60.6
2018-07-20T09:56:45.831Z,60.62
2018-07-20T09:57:45.589Z,60.64
2018-07-20T09:58:45.736Z,60.61
2018-07-20T09:59:46.079Z,60.58
2018-07-20T10:00:45.670Z,60.59
2018-07-20T10:01:45.520Z,60.58
2018-07-20T10:02:45.715Z,60.63
2018-07-20T10:03:45.583Z,60.61
2018-07-20T10:04:45.720Z,60.59
2018-07-20T10:05:45.813Z,60.58
2018-07-20T10:06:45.739Z,60.63
2018-07-20T10:07:45.670Z,60.6
2018-07-20T10:08:45.706Z,60.6
2018-07-20T10:09:45.622Z,60.58
2018-07-20T10:10:45.885Z,60.61
2018-07-20T10:11:45.680Z,60.59
2018-07-20T10:12:46.373Z,60.61
2018-07-20T10:13:45.658Z,60.62
2018-07-20T10:14:45.733Z,60.58
2018-07-20T10:15:45.750Z,60.58
2018-07-20T10:16:45.895Z,60.61
2018-07-20T10:17:45.660Z,60.59
2018-07-20T10:18:56.013Z,60.63
2018-07-20T10:19:45.661Z,60.57
2018-07-20T10:20:45.747Z,60.63
2018-07-20T10:21:45.674Z,60.61
2018-07-20T10:22:45.771Z,60.58
2018-07-20T10:23:45.552Z,60.62
2018-07-20T10:24:45.687Z,60.6
2018-07-20T10:25:46.657Z,60.58
2018-07-20T10:26:45.500Z,60.58
2018-07-20T10:28:45.703Z,60.58
2018-07-20T10:29:45.437Z,60.58
2018-07-20T10:30:46.429Z,60.56
2018-07-20T10:31:45.664Z,60.6
2018-07-20T10:32:45.493Z,60.57
2018-07-20T10:33:45.714Z,60.62
2018-07-20T10:34:45.686Z,60.57
2018-07-20T10:35:45.715Z,60.55
2018-07-20T10:36:46.162Z,60.58
2018-07-20T10:37:45.778Z,60.59
2018-07-20T10:38:45.460Z,60.58
2018-07-20T10:39:45.625Z,60.57
2018-07-20T10:40:45.707Z,60.58
2018-07-20T10:41:45.542Z,60.58
2018-07-20T10:42:45.505Z,60.55
2018-07-20T10:43:45.768Z,60.55
2018-07-20T10:44:45.665Z,60.54
2018-07-20T10:45:45.661Z,60.57
2018-07-20T10:46:45.670Z,60.56
2018-07-20T10:47:45.523Z,60.56
2018-07-20T10:48:45.889Z,60.57
2018-07-20T10:49:45.562Z,60.52
2018-07-20T10:50:45.584Z,60.55
2018-07-20T10:51:45.571Z,60.53
2018-07-20T10:52:45.500Z,60.56
2018-07-20T10:53:45.537Z,60.56
2018-07-20T10:54:45.664Z,60.55
2018-07-20T10:55:45.622Z,60.57
2018-07-20T10:56:45.596Z,60.57
2018-07-20T10:57:45.592Z,60.54
2018-07-20T10:58:45.848Z,60.55
2018-07-20T10:59:45.788Z,60.54
2018-07-20T11:00:45.549Z,60.54
2018-07-20T11:01:46.339Z,60.54
2018-07-20T11:02:45.698Z,60.57
2018-07-20T11:03:45.816Z,60.54
2018-07-20T11:04:45.682Z,60.56
2018-07-20T11:05:45.472Z,60.58
2018-07-20T11:06:45.518Z,60.58
2018-07-20T11:07:45.791Z,60.58
2018-07-20T11:08:45.718Z,60.53
2018-07-20T11:09:45.549Z,60.55
2018-07-20T11:10:45.527Z,60.52
2018-07-20T11:11:45.726Z,60.56
2018-07-20T11:12:45.687Z,60.55
2018-07-20T11:13:46.312Z,60.55
2018-07-20T11:14:45.673Z,60.55
2018-07-20T11:15:45.574Z,60.58
2018-07-20T11:16:45.629Z,60.65
2018-07-20T11:17:45.756Z,60.61
2018-07-20T11:18:45.713Z,60.71
2018-07-20T11:19:45.839Z,60.61
2018-07-20T11:20:45.626Z,60.55
2018-07-20T11:21:45.923Z,60.6
2018-07-20T11:22:45.746Z,60.63
2018-07-20T11:23:45.585Z,60.54
2018-07-20T11:24:45.794Z,60.69
2018-07-20T11:25:45.810Z,60.68
2018-07-20T11:26:45.796Z,60.68
2018-07-20T11:27:45.750Z,60.64
2018-07-20T11:28:45.593Z,60.64
2018-07-20T11:29:45.822Z,60.61
2018-07-20T11:30:45.773Z,60.59
2018-07-20T11:31:45.699Z,60.59
2018-07-20T11:32:45.449Z,60.59
2018-07-20T11:33:45.557Z,60.6
2018-07-20T11:34:46.379Z,60.63
2018-07-20T11:35:45.520Z,60.66
2018-07-20T11:36:45.773Z,60.67
2018-07-20T11:37:45.658Z,60.65
2018-07-20T11:38:45.613Z,60.68
2018-07-20T11:39:45.611Z,60.63
2018-07-20T11:40:45.829Z,60.62
2018-07-20T11:41:45.459Z,60.61
2018-07-20T11:42:46.015Z,60.63
2018-07-20T11:43:45.531Z,60.65
2018-07-20T11:44:45.701Z,60.62
2018-07-20T11:45:45.594Z,60.63
2018-07-20T11:46:45.729Z,60.63
2018-07-20T11:47:45.813Z,60.6
2018-07-20T11:48:45.754Z,60.59
2018-07-20T11:49:45.525Z,60.64
2018-07-20T11:50:45.411Z,60.62
2018-07-20T11:51:45.741Z,60.61
2018-07-20T11:52:45.730Z,60.6
2018-07-20T11:53:45.498Z,60.62
2018-07-20T11:54:45.615Z,60.59
2018-07-20T11:55:45.632Z,60.61
2018-07-20T11:56:45.467Z,60.61
2018-07-20T11:57:45.501Z,60.62
2018-07-20T11:58:45.454Z,60.61
2018-07-20T12:00:07.474Z,60.61
2018-07-20T12:00:45.732Z,60.62
2018-07-20T12:01:45.806Z,60.61
2018-07-20T12:02:45.508Z,60.59
2018-07-20T12:03:45.718Z,60.6
2018-07-20T12:04:45.589Z,60.61
2018-07-20T12:05:45.543Z,60.62
2018-07-20T12:06:45.910Z,60.59
2018-07-20T12:07:45.499Z,60.59
2018-07-20T12:08:45.729Z,60.6
2018-07-20T12:09:45.496Z,60.6
2018-07-20T12:10:45.672Z,60.62
2018-07-20T12:11:45.481Z,60.56
2018-07-20T12:12:45.558Z,60.6
2018-07-20T12:13:45.762Z,60.58
2018-07-20T12:14:45.506Z,60.61
2018-07-20T12:15:45.492Z,60.6
2018-07-20T12:16:45.757Z,60.61
2018-07-20T12:17:45.777Z,60.58
2018-07-20T12:18:45.582Z,60.62
2018-07-20T12:19:45.731Z,60.64
2018-07-20T12:20:45.667Z,60.6
2018-07-20T12:21:45.749Z,60.62
2018-07-20T12:22:45.600Z,60.6
2018-07-20T12:23:45.739Z,60.57
2018-07-20T12:24:46.080Z,60.62
2018-07-20T12:25:45.800Z,60.58
2018-07-20T12:26:45.507Z,60.58
2018-07-20T12:27:45.794Z,60.57
2018-07-20T12:28:45.666Z,60.6
2018-07-20T12:29:45.775Z,60.57
2018-07-20T12:30:45.586Z,60.62
2018-07-20T12:31:45.901Z,60.56
2018-07-20T12:32:45.612Z,60.57
2018-07-20T12:33:45.723Z,60.55
2018-07-20T12:34:45.839Z,60.57
2018-07-20T12:35:45.680Z,60.61
2018-07-20T12:36:45.920Z,60.62
2018-07-20T12:37:45.903Z,60.59
2018-07-20T12:39:07.789Z,60.61
2018-07-20T12:39:45.724Z,60.59
2018-07-20T12:40:45.675Z,60.56
2018-07-20T12:41:45.462Z,60.59
2018-07-20T12:42:45.535Z,60.59
2018-07-20T12:43:45.609Z,60.6
2018-07-20T12:44:45.718Z,60.72
2018-07-20T12:45:45.830Z,60.67
2018-07-20T12:46:46.434Z,60.89
2018-07-20T12:47:45.601Z,60.96
2018-07-20T12:48:45.687Z,60.97
2018-07-20T12:49:45.513Z,61.06
2018-07-20T12:50:45.475Z,61.01
2018-07-20T12:51:45.507Z,60.91
2018-07-20T12:52:45.870Z,60.88
2018-07-20T12:53:45.455Z,61.02
2018-07-20T12:54:45.494Z,60.89
2018-07-20T12:55:45.860Z,60.82
2018-07-20T12:56:45.538Z,60.84